sensor_id;sensor_type;location;lat;lon;timestamp;pressure;altitude;pressure_sealevel;temperature;humidity
56825;BME280;42705;50.326;18.772;2023-05-24T00:04:39;98170.26;;;16.85;72.32
56825;BME280;42705;50.326;18.772;2023-05-24T00:10:05;98166.20;;;16.83;72.32
56825;BME280;42705;50.326;18.772;2023-05-24T00:15:28;98169.21;;;16.75;72.25
56825;BME280;42705;50.326;18.772;2023-05-24T00:20:49;98175.31;;;16.70;72.35
56825;BME280;42705;50.326;18.772;2023-05-24T00:26:12;98173.48;;;16.64;72.31
56825;BME280;42705;50.326;18.772;2023-05-24T00:31:35;98174.96;;;16.66;72.38
56825;BME280;42705;50.326;18.772;2023-05-24T00:36:57;98173.98;;;16.66;72.36
56825;BME280;42705;50.326;18.772;2023-05-24T00:42:19;98177.74;;;16.63;72.34
56825;BME280;42705;50.326;18.772;2023-05-24T00:47:41;98182.41;;;16.65;72.36
56825;BME280;42705;50.326;18.772;2023-05-24T00:53:03;98189.10;;;16.67;72.40
56825;BME280;42705;50.326;18.772;2023-05-24T00:58:27;98192.38;;;16.66;72.21
56825;BME280;42705;50.326;18.772;2023-05-24T01:03:52;98197.54;;;16.65;72.15
56825;BME280;42705;50.326;18.772;2023-05-24T01:20:45;98209.66;;;16.48;72.16
56825;BME280;42705;50.326;18.772;2023-05-24T01:26:19;98212.02;;;16.44;72.20
56825;BME280;42705;50.326;18.772;2023-05-24T01:31:46;98215.34;;;16.40;72.05
56825;BME280;42705;50.326;18.772;2023-05-24T01:37:09;98214.05;;;16.35;72.07
56825;BME280;42705;50.326;18.772;2023-05-24T01:42:52;98216.68;;;16.28;72.12
56825;BME280;42705;50.326;18.772;2023-05-24T01:48:30;98225.25;;;16.25;72.21
56825;BME280;42705;50.326;18.772;2023-05-24T01:53:56;98222.69;;;16.24;72.09
56825;BME280;42705;50.326;18.772;2023-05-24T01:59:21;98225.46;;;16.22;72.22
56825;BME280;42705;50.326;18.772;2023-05-24T02:04:43;98236.16;;;16.16;72.11
56825;BME280;42705;50.326;18.772;2023-05-24T02:10:07;98238.65;;;16.11;72.25
56825;BME280;42705;50.326;18.772;2023-05-24T02:15:29;98237.64;;;16.09;72.25
56825;BME280;42705;50.326;18.772;2023-05-24T02:20:52;98233.02;;;16.06;72.40
56825;BME280;42705;50.326;18.772;2023-05-24T02:26:14;98240.23;;;16.08;72.33
56825;BME280;42705;50.326;18.772;2023-05-24T02:31:38;98236.14;;;16.07;72.27
56825;BME280;42705;50.326;18.772;2023-05-24T02:37:00;98242.09;;;16.03;72.23
56825;BME280;42705;50.326;18.772;2023-05-24T02:42:22;98242.26;;;16.00;72.46
56825;BME280;42705;50.326;18.772;2023-05-24T02:47:44;98243.91;;;15.96;72.41
56825;BME280;42705;50.326;18.772;2023-05-24T02:53:07;98244.75;;;15.90;72.30
56825;BME280;42705;50.326;18.772;2023-05-24T02:58:29;98245.14;;;15.88;72.57
56825;BME280;42705;50.326;18.772;2023-05-24T03:03:53;98246.02;;;15.90;72.62
56825;BME280;42705;50.326;18.772;2023-05-24T03:09:15;98248.70;;;15.88;72.44
56825;BME280;42705;50.326;18.772;2023-05-24T03:14:37;98255.85;;;15.92;72.71
56825;BME280;42705;50.326;18.772;2023-05-24T03:19:59;98256.22;;;15.92;72.65
56825;BME280;42705;50.326;18.772;2023-05-24T03:25:25;98258.34;;;15.93;72.76
56825;BME280;42705;50.326;18.772;2023-05-24T03:30:49;98259.67;;;15.90;72.75
56825;BME280;42705;50.326;18.772;2023-05-24T03:36:12;98264.35;;;15.88;72.88
56825;BME280;42705;50.326;18.772;2023-05-24T03:41:34;98274.27;;;15.86;73.01
56825;BME280;42705;50.326;18.772;2023-05-24T03:46:56;98283.70;;;15.74;72.65
56825;BME280;42705;50.326;18.772;2023-05-24T03:52:19;98289.86;;;15.56;72.49
56825;BME280;42705;50.326;18.772;2023-05-24T03:57:41;98295.91;;;15.30;72.59
56825;BME280;42705;50.326;18.772;2023-05-24T04:03:03;98305.84;;;15.04;72.67
56825;BME280;42705;50.326;18.772;2023-05-24T04:08:27;98315.30;;;14.82;72.69
56825;BME280;42705;50.326;18.772;2023-05-24T04:13:49;98315.55;;;14.59;72.63
56825;BME280;42705;50.326;18.772;2023-05-24T04:19:14;98322.19;;;14.36;72.88
56825;BME280;42705;50.326;18.772;2023-05-24T04:24:36;98324.26;;;14.20;73.17
56825;BME280;42705;50.326;18.772;2023-05-24T04:29:58;98339.80;;;14.11;73.45
56825;BME280;42705;50.326;18.772;2023-05-24T04:35:21;98349.81;;;14.03;73.34
56825;BME280;42705;50.326;18.772;2023-05-24T04:40:45;98351.27;;;13.90;73.46
56825;BME280;42705;50.326;18.772;2023-05-24T04:46:07;98357.74;;;13.83;73.59
56825;BME280;42705;50.326;18.772;2023-05-24T04:51:29;98361.18;;;13.80;73.58
56825;BME280;42705;50.326;18.772;2023-05-24T04:56:53;98366.61;;;13.72;73.65
56825;BME280;42705;50.326;18.772;2023-05-24T05:02:15;98376.36;;;13.59;73.49
56825;BME280;42705;50.326;18.772;2023-05-24T05:07:37;98389.02;;;13.47;73.46
56825;BME280;42705;50.326;18.772;2023-05-24T05:12:59;98396.34;;;13.37;73.42
56825;BME280;42705;50.326;18.772;2023-05-24T05:18:21;98402.53;;;13.31;73.34
56825;BME280;42705;50.326;18.772;2023-05-24T05:23:44;98414.88;;;13.26;73.23
56825;BME280;42705;50.326;18.772;2023-05-24T05:29:06;98421.16;;;13.21;73.12
56825;BME280;42705;50.326;18.772;2023-05-24T05:34:28;98427.84;;;13.19;73.14
56825;BME280;42705;50.326;18.772;2023-05-24T05:39:49;98437.30;;;13.17;73.05
56825;BME280;42705;50.326;18.772;2023-05-24T05:45:11;98442.46;;;13.16;73.02
56825;BME280;42705;50.326;18.772;2023-05-24T05:50:33;98447.90;;;13.13;72.85
56825;BME280;42705;50.326;18.772;2023-05-24T05:55:55;98459.59;;;13.05;72.68
56825;BME280;42705;50.326;18.772;2023-05-24T06:01:17;98458.39;;;13.05;72.66
56825;BME280;42705;50.326;18.772;2023-05-24T06:06:39;98467.77;;;13.04;72.48
56825;BME280;42705;50.326;18.772;2023-05-24T06:12:00;98479.23;;;12.96;72.43
56825;BME280;42705;50.326;18.772;2023-05-24T06:17:23;98489.52;;;12.95;72.57
56825;BME280;42705;50.326;18.772;2023-05-24T06:22:45;98495.83;;;12.88;72.39
56825;BME280;42705;50.326;18.772;2023-05-24T06:28:09;98494.36;;;12.80;72.44
56825;BME280;42705;50.326;18.772;2023-05-24T06:33:31;98508.21;;;12.76;72.51
56825;BME280;42705;50.326;18.772;2023-05-24T06:38:53;98517.45;;;12.78;72.56
56825;BME280;42705;50.326;18.772;2023-05-24T06:44:14;98523.80;;;12.85;72.46
56825;BME280;42705;50.326;18.772;2023-05-24T06:49:37;98525.34;;;12.91;72.38
56825;BME280;42705;50.326;18.772;2023-05-24T06:54:59;98522.48;;;12.98;72.25
56825;BME280;42705;50.326;18.772;2023-05-24T07:00:21;98530.44;;;13.02;72.10
56825;BME280;42705;50.326;18.772;2023-05-24T07:05:43;98537.59;;;13.05;71.90
56825;BME280;42705;50.326;18.772;2023-05-24T07:11:05;98550.64;;;13.04;71.74
56825;BME280;42705;50.326;18.772;2023-05-24T07:16:28;98558.45;;;13.07;71.59
56825;BME280;42705;50.326;18.772;2023-05-24T07:21:50;98560.38;;;13.10;71.44
56825;BME280;42705;50.326;18.772;2023-05-24T07:27:12;98574.08;;;13.08;71.38
56825;BME280;42705;50.326;18.772;2023-05-24T07:32:34;98580.29;;;13.04;71.17
56825;BME280;42705;50.326;18.772;2023-05-24T07:37:56;98578.44;;;12.92;70.87
56825;BME280;42705;50.326;18.772;2023-05-24T07:43:18;98590.55;;;12.76;70.89
56825;BME280;42705;50.326;18.772;2023-05-24T07:48:40;98593.80;;;12.75;71.07
56825;BME280;42705;50.326;18.772;2023-05-24T07:54:02;98591.60;;;12.81;71.06
56825;BME280;42705;50.326;18.772;2023-05-24T07:59:24;98604.82;;;12.77;70.96
56825;BME280;42705;50.326;18.772;2023-05-24T08:04:46;98603.73;;;12.77;70.94
56825;BME280;42705;50.326;18.772;2023-05-24T08:10:09;98609.02;;;12.84;70.78
56825;BME280;42705;50.326;18.772;2023-05-24T08:15:34;98620.77;;;12.79;70.58
56825;BME280;42705;50.326;18.772;2023-05-24T08:20:55;98626.59;;;12.80;70.56
56825;BME280;42705;50.326;18.772;2023-05-24T08:26:17;98634.92;;;12.81;70.48
56825;BME280;42705;50.326;18.772;2023-05-24T08:31:41;98639.23;;;12.82;70.33
56825;BME280;42705;50.326;18.772;2023-05-24T08:37:04;98652.16;;;12.88;70.24
56825;BME280;42705;50.326;18.772;2023-05-24T08:42:27;98657.58;;;12.90;70.04
56825;BME280;42705;50.326;18.772;2023-05-24T08:47:51;98663.86;;;12.90;69.74
56825;BME280;42705;50.326;18.772;2023-05-24T08:53:13;98654.69;;;12.98;69.79
56825;BME280;42705;50.326;18.772;2023-05-24T08:58:37;98658.90;;;13.12;69.68
56825;BME280;42705;50.326;18.772;2023-05-24T09:04:01;98665.21;;;13.17;69.44
56825;BME280;42705;50.326;18.772;2023-05-24T09:09:26;98676.17;;;13.11;69.44
56825;BME280;42705;50.326;18.772;2023-05-24T09:14:49;98683.36;;;13.08;69.52
56825;BME280;42705;50.326;18.772;2023-05-24T09:20:12;98690.94;;;13.07;69.35
56825;BME280;42705;50.326;18.772;2023-05-24T09:25:34;98692.69;;;13.13;69.11
56825;BME280;42705;50.326;18.772;2023-05-24T09:30:58;98695.92;;;13.17;68.80
56825;BME280;42705;50.326;18.772;2023-05-24T09:36:20;98699.86;;;13.27;68.54
56825;BME280;42705;50.326;18.772;2023-05-24T09:41:42;98701.64;;;13.47;68.26
56825;BME280;42705;50.326;18.772;2023-05-24T09:47:04;98696.46;;;13.76;68.09
56825;BME280;42705;50.326;18.772;2023-05-24T09:52:26;98701.45;;;14.06;67.80
56825;BME280;42705;50.326;18.772;2023-05-24T09:58:01;98717.36;;;14.34;67.27
56825;BME280;42705;50.326;18.772;2023-05-24T10:03:24;98718.71;;;14.48;66.58
56825;BME280;42705;50.326;18.772;2023-05-24T10:08:47;98720.36;;;14.60;66.24
56825;BME280;42705;50.326;18.772;2023-05-24T10:14:12;98719.27;;;14.65;65.93
56825;BME280;42705;50.326;18.772;2023-05-24T10:19:35;98723.52;;;14.67;65.76
56825;BME280;42705;50.326;18.772;2023-05-24T10:24:58;98724.52;;;14.69;65.16
56825;BME280;42705;50.326;18.772;2023-05-24T10:30:30;98722.48;;;14.80;65.13
56825;BME280;42705;50.326;18.772;2023-05-24T10:35:53;98725.96;;;15.10;64.84
56825;BME280;42705;50.326;18.772;2023-05-24T10:41:17;98727.32;;;15.42;64.40
56825;BME280;42705;50.326;18.772;2023-05-24T10:52:34;98725.67;;;15.84;63.54
56825;BME280;42705;50.326;18.772;2023-05-24T10:57:57;98725.88;;;15.99;63.16
56825;BME280;42705;50.326;18.772;2023-05-24T11:03:19;98728.16;;;16.06;62.90
56825;BME280;42705;50.326;18.772;2023-05-24T11:08:45;98726.35;;;16.22;62.32
56825;BME280;42705;50.326;18.772;2023-05-24T11:14:07;98723.59;;;16.24;62.16
56825;BME280;42705;50.326;18.772;2023-05-24T11:19:32;98726.92;;;16.28;62.12
56825;BME280;42705;50.326;18.772;2023-05-24T11:24:55;98731.21;;;16.27;61.80
56825;BME280;42705;50.326;18.772;2023-05-24T11:30:18;98732.78;;;16.21;61.76
56825;BME280;42705;50.326;18.772;2023-05-24T11:35:41;98733.57;;;16.12;61.91
56825;BME280;42705;50.326;18.772;2023-05-24T11:41:04;98738.63;;;16.11;61.69
56825;BME280;42705;50.326;18.772;2023-05-24T11:46:26;98740.51;;;15.98;61.72
56825;BME280;42705;50.326;18.772;2023-05-24T11:51:49;98737.77;;;15.93;61.81
56825;BME280;42705;50.326;18.772;2023-05-24T11:57:13;98734.34;;;15.94;61.83
56825;BME280;42705;50.326;18.772;2023-05-24T12:02:36;98723.29;;;16.03;61.73
56825;BME280;42705;50.326;18.772;2023-05-24T12:08:05;98723.66;;;16.07;61.39
56825;BME280;42705;50.326;18.772;2023-05-24T12:13:28;98720.16;;;16.12;61.25
56825;BME280;42705;50.326;18.772;2023-05-24T12:18:51;98724.79;;;16.25;60.96
56825;BME280;42705;50.326;18.772;2023-05-24T12:24:15;98724.73;;;16.55;60.62
56825;BME280;42705;50.326;18.772;2023-05-24T12:29:39;98733.07;;;16.69;60.09
56825;BME280;42705;50.326;18.772;2023-05-24T12:35:02;98732.54;;;16.69;60.00
56825;BME280;42705;50.326;18.772;2023-05-24T12:40:25;98734.15;;;16.77;60.12
56825;BME280;42705;50.326;18.772;2023-05-24T12:45:47;98744.71;;;16.74;59.87
56825;BME280;42705;50.326;18.772;2023-05-24T12:51:09;98745.27;;;16.59;59.97
56825;BME280;42705;50.326;18.772;2023-05-24T12:56:31;98738.36;;;16.44;59.92
56825;BME280;42705;50.326;18.772;2023-05-24T13:01:54;98741.52;;;16.29;60.02
56825;BME280;42705;50.326;18.772;2023-05-24T13:07:16;98735.94;;;16.16;60.11
56825;BME280;42705;50.326;18.772;2023-05-24T13:12:38;98736.75;;;16.10;60.11
56825;BME280;42705;50.326;18.772;2023-05-24T13:18:00;98737.53;;;16.08;60.44
56825;BME280;42705;50.326;18.772;2023-05-24T13:23:22;98733.54;;;16.09;60.43
56825;BME280;42705;50.326;18.772;2023-05-24T13:28:44;98730.78;;;16.03;60.29
56825;BME280;42705;50.326;18.772;2023-05-24T13:34:06;98729.58;;;15.94;60.40
56825;BME280;42705;50.326;18.772;2023-05-24T13:39:29;98730.65;;;15.85;60.35
56825;BME280;42705;50.326;18.772;2023-05-24T13:44:51;98732.71;;;15.74;60.34
56825;BME280;42705;50.326;18.772;2023-05-24T13:50:14;98735.95;;;15.62;60.48
56825;BME280;42705;50.326;18.772;2023-05-24T13:55:36;98733.52;;;15.56;60.55
56825;BME280;42705;50.326;18.772;2023-05-24T14:01:00;98739.23;;;15.56;60.67
56825;BME280;42705;50.326;18.772;2023-05-24T14:06:22;98742.08;;;15.59;60.85
56825;BME280;42705;50.326;18.772;2023-05-24T14:11:44;98736.74;;;15.59;60.90
56825;BME280;42705;50.326;18.772;2023-05-24T14:17:06;98737.67;;;15.60;60.96
56825;BME280;42705;50.326;18.772;2023-05-24T14:22:28;98739.32;;;15.60;61.08
56825;BME280;42705;50.326;18.772;2023-05-24T14:27:50;98742.85;;;15.51;60.95
56825;BME280;42705;50.326;18.772;2023-05-24T14:33:12;98745.23;;;15.32;61.09
56825;BME280;42705;50.326;18.772;2023-05-24T14:38:34;98747.48;;;15.19;61.32
56825;BME280;42705;50.326;18.772;2023-05-24T14:43:57;98740.44;;;15.11;61.77
56825;BME280;42705;50.326;18.772;2023-05-24T14:49:19;98738.68;;;15.07;61.84
56825;BME280;42705;50.326;18.772;2023-05-24T14:54:41;98741.71;;;15.04;62.01
56825;BME280;42705;50.326;18.772;2023-05-24T15:00:03;98741.25;;;15.03;62.21
56825;BME280;42705;50.326;18.772;2023-05-24T15:05:26;98740.98;;;15.02;62.18
56825;BME280;42705;50.326;18.772;2023-05-24T15:10:48;98739.04;;;15.02;62.12
56825;BME280;42705;50.326;18.772;2023-05-24T15:16:10;98742.25;;;15.07;62.37
56825;BME280;42705;50.326;18.772;2023-05-24T15:21:32;98739.94;;;15.09;62.30
56825;BME280;42705;50.326;18.772;2023-05-24T15:26:54;98743.85;;;15.05;62.17
56825;BME280;42705;50.326;18.772;2023-05-24T15:32:16;98740.35;;;15.00;62.23
56825;BME280;42705;50.326;18.772;2023-05-24T15:37:38;98748.83;;;14.98;62.23
56825;BME280;42705;50.326;18.772;2023-05-24T15:43:01;98750.85;;;14.92;62.25
56825;BME280;42705;50.326;18.772;2023-05-24T15:48:23;98755.95;;;14.92;62.47
56825;BME280;42705;50.326;18.772;2023-05-24T15:53:45;98761.44;;;14.96;62.59
56825;BME280;42705;50.326;18.772;2023-05-24T15:59:07;98767.86;;;14.96;62.43
56825;BME280;42705;50.326;18.772;2023-05-24T16:04:29;98773.77;;;14.90;62.25
56825;BME280;42705;50.326;18.772;2023-05-24T16:09:51;98778.25;;;14.82;62.38
56825;BME280;42705;50.326;18.772;2023-05-24T16:15:13;98782.27;;;14.75;62.54
56825;BME280;42705;50.326;18.772;2023-05-24T16:20:35;98777.30;;;14.75;62.66
56825;BME280;42705;50.326;18.772;2023-05-24T16:25:57;98773.44;;;14.81;62.73
56825;BME280;42705;50.326;18.772;2023-05-24T16:31:19;98776.25;;;14.84;62.76
56825;BME280;42705;50.326;18.772;2023-05-24T16:36:41;98777.34;;;14.82;62.78
56825;BME280;42705;50.326;18.772;2023-05-24T16:42:06;98784.45;;;14.78;62.77
56825;BME280;42705;50.326;18.772;2023-05-24T16:47:29;98790.52;;;14.72;62.80
56825;BME280;42705;50.326;18.772;2023-05-24T16:52:52;98791.94;;;14.70;62.90
56825;BME280;42705;50.326;18.772;2023-05-24T16:58:14;98798.13;;;14.70;62.91
56825;BME280;42705;50.326;18.772;2023-05-24T17:03:37;98801.69;;;14.62;62.84
56825;BME280;42705;50.326;18.772;2023-05-24T17:08:59;98805.40;;;14.57;63.07
56825;BME280;42705;50.326;18.772;2023-05-24T17:14:22;98814.59;;;14.51;63.24
56825;BME280;42705;50.326;18.772;2023-05-24T17:19:44;98812.08;;;14.53;63.35
56825;BME280;42705;50.326;18.772;2023-05-24T17:25:08;98816.27;;;14.59;63.49
56825;BME280;42705;50.326;18.772;2023-05-24T17:30:31;98822.59;;;14.59;63.44
56825;BME280;42705;50.326;18.772;2023-05-24T17:35:55;98831.06;;;14.55;63.51
56825;BME280;42705;50.326;18.772;2023-05-24T17:41:17;98829.62;;;14.50;63.60
56825;BME280;42705;50.326;18.772;2023-05-24T17:46:40;98826.59;;;14.49;63.63
56825;BME280;42705;50.326;18.772;2023-05-24T17:52:03;98834.07;;;14.50;63.79
56825;BME280;42705;50.326;18.772;2023-05-24T17:57:25;98832.38;;;14.47;63.74
56825;BME280;42705;50.326;18.772;2023-05-24T18:02:48;98840.10;;;14.44;63.90
56825;BME280;42705;50.326;18.772;2023-05-24T18:08:11;98845.13;;;14.41;63.96
56825;BME280;42705;50.326;18.772;2023-05-24T18:13:33;98852.39;;;14.44;64.22
56825;BME280;42705;50.326;18.772;2023-05-24T18:18:56;98862.42;;;14.47;64.27
56825;BME280;42705;50.326;18.772;2023-05-24T18:24:19;98867.66;;;14.47;64.38
56825;BME280;42705;50.326;18.772;2023-05-24T18:29:42;98873.48;;;14.45;64.26
56825;BME280;42705;50.326;18.772;2023-05-24T18:35:04;98876.23;;;14.42;64.37
56825;BME280;42705;50.326;18.772;2023-05-24T18:40:28;98879.06;;;14.39;64.35
56825;BME280;42705;50.326;18.772;2023-05-24T18:45:50;98888.18;;;14.41;64.45
56825;BME280;42705;50.326;18.772;2023-05-24T18:51:13;98889.92;;;14.41;64.66
56825;BME280;42705;50.326;18.772;2023-05-24T18:56:36;98891.14;;;14.37;64.68
56825;BME280;42705;50.326;18.772;2023-05-24T19:02:01;98896.09;;;14.33;64.53
56825;BME280;42705;50.326;18.772;2023-05-24T19:07:23;98902.03;;;14.34;64.87
56825;BME280;42705;50.326;18.772;2023-05-24T19:12:47;98909.89;;;14.36;64.84
56825;BME280;42705;50.326;18.772;2023-05-24T19:18:09;98913.23;;;14.36;65.01
56825;BME280;42705;50.326;18.772;2023-05-24T19:23:33;98922.09;;;14.34;64.99
56825;BME280;42705;50.326;18.772;2023-05-24T19:28:56;98926.95;;;14.36;65.14
56825;BME280;42705;50.326;18.772;2023-05-24T19:34:20;98939.24;;;14.38;65.00
56825;BME280;42705;50.326;18.772;2023-05-24T19:39:42;98942.49;;;14.35;65.31
56825;BME280;42705;50.326;18.772;2023-05-24T19:45:05;98932.88;;;14.31;65.20
56825;BME280;42705;50.326;18.772;2023-05-24T19:50:27;98942.02;;;14.26;65.29
56825;BME280;42705;50.326;18.772;2023-05-24T19:55:50;98941.73;;;14.25;65.19
56825;BME280;42705;50.326;18.772;2023-05-24T20:01:13;98942.89;;;14.26;65.21
56825;BME280;42705;50.326;18.772;2023-05-24T20:06:36;98939.13;;;14.23;65.39
56825;BME280;42705;50.326;18.772;2023-05-24T20:12:00;98932.79;;;14.20;65.37
56825;BME280;42705;50.326;18.772;2023-05-24T20:17:26;98932.13;;;14.13;65.47
56825;BME280;42705;50.326;18.772;2023-05-24T20:22:48;98922.06;;;14.10;65.56
56825;BME280;42705;50.326;18.772;2023-05-24T20:28:11;98921.86;;;14.09;65.85
56825;BME280;42705;50.326;18.772;2023-05-24T20:33:33;98927.52;;;14.09;65.86
56825;BME280;42705;50.326;18.772;2023-05-24T20:38:59;98928.23;;;14.05;65.86
56825;BME280;42705;50.326;18.772;2023-05-24T20:44:22;98929.38;;;14.00;65.74
56825;BME280;42705;50.326;18.772;2023-05-24T20:49:44;98928.02;;;13.96;65.73
56825;BME280;42705;50.326;18.772;2023-05-24T20:55:07;98924.00;;;13.94;65.81
56825;BME280;42705;50.326;18.772;2023-05-24T21:00:29;98925.33;;;13.88;65.80
56825;BME280;42705;50.326;18.772;2023-05-24T21:05:51;98926.71;;;13.79;65.82
56825;BME280;42705;50.326;18.772;2023-05-24T21:11:13;98928.20;;;13.70;65.99
56825;BME280;42705;50.326;18.772;2023-05-24T21:16:35;98928.04;;;13.67;65.95
56825;BME280;42705;50.326;18.772;2023-05-24T21:21:57;98938.28;;;13.65;66.00
56825;BME280;42705;50.326;18.772;2023-05-24T21:27:19;98940.14;;;13.57;66.14
56825;BME280;42705;50.326;18.772;2023-05-24T21:32:41;98944.21;;;13.50;66.30
56825;BME280;42705;50.326;18.772;2023-05-24T21:38:03;98947.87;;;13.49;66.31
56825;BME280;42705;50.326;18.772;2023-05-24T21:43:25;98955.29;;;13.50;66.24
56825;BME280;42705;50.326;18.772;2023-05-24T21:48:47;98957.80;;;13.53;66.45
56825;BME280;42705;50.326;18.772;2023-05-24T21:54:08;98964.26;;;13.57;66.60
56825;BME280;42705;50.326;18.772;2023-05-24T21:59:30;98962.54;;;13.56;66.67
56825;BME280;42705;50.326;18.772;2023-05-24T22:04:52;98959.84;;;13.53;66.60
56825;BME280;42705;50.326;18.772;2023-05-24T22:10:14;98964.90;;;13.52;66.58
56825;BME280;42705;50.326;18.772;2023-05-24T22:15:36;98970.84;;;13.49;66.51
56825;BME280;42705;50.326;18.772;2023-05-24T22:20:58;98974.46;;;13.49;66.86
56825;BME280;42705;50.326;18.772;2023-05-24T22:26:20;98983.48;;;13.46;66.75
56825;BME280;42705;50.326;18.772;2023-05-24T22:31:43;98979.54;;;13.48;66.91
56825;BME280;42705;50.326;18.772;2023-05-24T22:37:05;98982.64;;;13.48;66.93
56825;BME280;42705;50.326;18.772;2023-05-24T22:42:27;98980.52;;;13.46;66.98
56825;BME280;42705;50.326;18.772;2023-05-24T22:47:49;98981.25;;;13.42;66.99
56825;BME280;42705;50.326;18.772;2023-05-24T22:53:11;98986.70;;;13.36;66.97
56825;BME280;42705;50.326;18.772;2023-05-24T22:58:33;98990.93;;;13.32;67.26
56825;BME280;42705;50.326;18.772;2023-05-24T23:03:56;98995.81;;;13.23;67.36
56825;BME280;42705;50.326;18.772;2023-05-24T23:09:17;98998.48;;;13.17;67.23
56825;BME280;42705;50.326;18.772;2023-05-24T23:14:49;98993.98;;;13.18;67.46
56825;BME280;42705;50.326;18.772;2023-05-24T23:20:11;98993.89;;;13.14;67.49
56825;BME280;42705;50.326;18.772;2023-05-24T23:25:34;98998.61;;;13.08;67.64
56825;BME280;42705;50.326;18.772;2023-05-24T23:30:57;98998.10;;;13.04;67.69
56825;BME280;42705;50.326;18.772;2023-05-24T23:36:19;99000.38;;;13.06;67.81
56825;BME280;42705;50.326;18.772;2023-05-24T23:41:41;99005.39;;;13.11;67.72
56825;BME280;42705;50.326;18.772;2023-05-24T23:47:03;99010.25;;;13.07;67.63
56825;BME280;42705;50.326;18.772;2023-05-24T23:52:25;99005.70;;;13.03;67.54
56825;BME280;42705;50.326;18.772;2023-05-24T23:57:48;99010.70;;;13.04;67.55
